createdAt,value
2018-09-27T00:01:28.386Z,102480.30
2018-09-27T00:03:56.943Z,102483.05
2018-09-27T00:06:25.463Z,102485.60
2018-09-27T00:08:54.028Z,102489.20
2018-09-27T00:11:22.543Z,102484.55
2018-09-27T00:13:51.077Z,102490.58
2018-09-27T00:16:19.602Z,102491.25
2018-09-27T00:18:48.153Z,102492.31
2018-09-27T00:21:16.673Z,102488.17
2018-09-27T00:23:45.202Z,102484.55
2018-09-27T00:26:13.952Z,102486.98
2018-09-27T00:28:42.625Z,102485.81
2018-09-27T00:31:11.167Z,102491.17
2018-09-27T00:33:39.719Z,102489.59
2018-09-27T00:36:08.302Z,102487.05
2018-09-27T00:38:36.823Z,102490.64
2018-09-27T00:41:05.425Z,102487.89
2018-09-27T00:43:33.952Z,102482.59
2018-09-27T00:46:02.491Z,102478.47
2018-09-27T00:48:31.006Z,102485.66
2018-09-27T00:50:59.585Z,102486.52
2018-09-27T00:53:28.100Z,102487.36
2018-09-27T00:55:56.657Z,102492.02
2018-09-27T00:58:25.168Z,102478.25
2018-09-27T01:00:53.707Z,102471.58
2018-09-27T01:03:22.217Z,102480.02
2018-09-27T01:05:50.755Z,102488.48
2018-09-27T01:08:19.275Z,102477.64
2018-09-27T01:10:47.821Z,102478.53
2018-09-27T01:13:16.327Z,102485.20
2018-09-27T01:15:44.892Z,102478.64
2018-09-27T01:18:13.412Z,102477.27
2018-09-27T01:20:41.960Z,102478.99
2018-09-27T01:23:10.472Z,102478.58
2018-09-27T01:25:39.005Z,102477.55
2018-09-27T01:28:07.527Z,102470.66
2018-09-27T01:30:36.194Z,102467.91
2018-09-27T01:33:04.757Z,102465.16
2018-09-27T01:35:33.309Z,102474.80
2018-09-27T01:38:01.837Z,102469.29
2018-09-27T01:40:30.365Z,102472.43
2018-09-27T01:42:58.883Z,102471.38
2018-09-27T01:45:27.412Z,102464.63
2018-09-27T01:47:55.936Z,102464.31
2018-09-27T01:50:24.474Z,102462.02
2018-09-27T01:52:53.468Z,102467.31
2018-09-27T01:55:22.069Z,102464.77
2018-09-27T01:57:50.588Z,102460.82
2018-09-27T02:00:19.159Z,102466.53
2018-09-27T02:02:47.683Z,102467.56
2018-09-27T02:05:16.225Z,102475.11
2018-09-27T02:07:44.749Z,102468.77
2018-09-27T02:10:13.301Z,102466.86
2018-09-27T02:12:41.825Z,102466.15
2018-09-27T02:15:10.359Z,102469.22
2018-09-27T02:17:39.123Z,102472.30
2018-09-27T02:20:07.686Z,102465.73
2018-09-27T02:22:36.183Z,102460.96
2018-09-27T02:25:04.780Z,102461.95
2018-09-27T02:27:33.314Z,102456.09
2018-09-27T02:30:01.827Z,102455.24
2018-09-27T02:32:30.390Z,102461.59
2018-09-27T02:34:58.906Z,102456.63
2018-09-27T02:37:27.421Z,102449.88
2018-09-27T02:39:55.945Z,102450.72
2018-09-27T02:42:24.464Z,102451.05
2018-09-27T02:44:52.968Z,102447.58
2018-09-27T02:47:21.621Z,102456.38
2018-09-27T02:49:50.129Z,102453.73
2018-09-27T02:52:18.666Z,102445.47
2018-09-27T02:54:47.188Z,102448.95
2018-09-27T02:57:15.711Z,102444.09
2018-09-27T02:59:44.202Z,102443.06
2018-09-27T03:02:12.725Z,102447.37
2018-09-27T03:04:41.225Z,102443.77
2018-09-27T03:07:09.746Z,102445.36
2018-09-27T03:09:38.243Z,102446.00
2018-09-27T03:12:06.869Z,102447.58
2018-09-27T03:14:35.407Z,102437.42
2018-09-27T03:17:03.963Z,102435.72
2018-09-27T03:19:32.458Z,102434.88
2018-09-27T03:22:00.985Z,102428.30
2018-09-27T03:24:29.517Z,102435.66
2018-09-27T03:26:58.035Z,102432.89
2018-09-27T03:29:26.628Z,102435.66
2018-09-27T03:31:55.194Z,102434.45
2018-09-27T03:34:23.717Z,102438.80
2018-09-27T03:36:52.237Z,102436.04
2018-09-27T03:39:20.748Z,102440.84
2018-09-27T03:41:49.269Z,102440.84
2018-09-27T03:44:17.763Z,102436.70
2018-09-27T03:46:46.289Z,102434.98
2018-09-27T03:49:14.789Z,102437.20
2018-09-27T03:51:43.306Z,102425.34
2018-09-27T03:54:11.833Z,102431.59
2018-09-27T03:56:40.340Z,102429.22
2018-09-27T03:59:08.864Z,102433.14
2018-09-27T04:01:37.387Z,102429.55
2018-09-27T04:04:05.896Z,102436.11
2018-09-27T04:06:34.413Z,102429.22
2018-09-27T04:09:02.959Z,102425.41
2018-09-27T04:11:31.492Z,102425.09
2018-09-27T04:13:59.999Z,102425.73
2018-09-27T04:16:28.618Z,102419.73
2018-09-27T04:18:57.115Z,102417.15
2018-09-27T04:21:25.640Z,102412.17
2018-09-27T04:23:54.161Z,102411.01
2018-09-27T04:26:22.667Z,102418.84
2018-09-27T04:28:51.186Z,102411.01
2018-09-27T04:31:19.686Z,102420.50
2018-09-27T04:33:48.268Z,102422.09
2018-09-27T04:36:16.757Z,102423.47
2018-09-27T04:38:45.275Z,102423.13
2018-09-27T04:41:13.772Z,102418.35
2018-09-27T04:43:42.330Z,102426.08
2018-09-27T04:46:10.826Z,102426.61
2018-09-27T04:48:39.352Z,102424.03
2018-09-27T04:51:07.866Z,102415.14
2018-09-27T04:53:36.939Z,102426.68
2018-09-27T04:56:05.446Z,102424.42
2018-09-27T04:58:33.958Z,102420.19
2018-09-27T05:01:02.485Z,102423.97
2018-09-27T05:03:31.013Z,102430.00
2018-09-27T05:05:59.514Z,102428.09
2018-09-27T05:08:28.069Z,102426.08
2018-09-27T05:10:56.607Z,102424.70
2018-09-27T05:13:25.165Z,102432.96
2018-09-27T05:15:53.705Z,102432.64
2018-09-27T05:18:22.232Z,102435.39
2018-09-27T05:20:50.742Z,102432.11
2018-09-27T05:23:19.275Z,102433.14
2018-09-27T05:25:47.786Z,102429.75
2018-09-27T05:28:16.317Z,102432.18
2018-09-27T05:30:44.818Z,102430.98
2018-09-27T05:33:13.430Z,102431.44
2018-09-27T05:35:41.925Z,102435.02
2018-09-27T05:38:10.446Z,102436.45
2018-09-27T05:40:38.956Z,102441.96
2018-09-27T05:43:08.091Z,102441.64
2018-09-27T05:45:36.688Z,102441.58
2018-09-27T05:48:05.373Z,102446.00
2018-09-27T05:50:33.893Z,102443.70
2018-09-27T05:53:02.465Z,102451.05
2018-09-27T05:55:30.954Z,102452.89
2018-09-27T05:57:59.468Z,102453.67
2018-09-27T06:00:27.979Z,102453.93
2018-09-27T06:02:56.514Z,102461.13
2018-09-27T06:05:25.032Z,102459.58
2018-09-27T06:07:53.553Z,102459.72
2018-09-27T06:10:22.101Z,102461.56
2018-09-27T06:12:50.640Z,102461.66
2018-09-27T06:15:19.146Z,102467.11
2018-09-27T06:17:47.673Z,102468.62
2018-09-27T06:20:16.176Z,102469.08
2018-09-27T06:22:44.709Z,102466.72
2018-09-27T06:25:13.213Z,102466.12
2018-09-27T06:27:41.748Z,102464.49
2018-09-27T06:30:10.338Z,102456.86
2018-09-27T06:32:39.084Z,102457.67
2018-09-27T06:35:07.706Z,102455.23
2018-09-27T06:37:36.515Z,102454.77
2018-09-27T06:40:05.269Z,102454.23
2018-09-27T06:42:33.770Z,102455.94
2018-09-27T06:45:02.307Z,102455.39
2018-09-27T06:47:30.821Z,102457.94
2018-09-27T06:49:59.353Z,102458.60
2018-09-27T06:52:27.858Z,102456.03
2018-09-27T06:54:56.399Z,102456.48
2018-09-27T06:57:24.918Z,102453.39
2018-09-27T06:59:53.442Z,102454.75
2018-09-27T07:02:21.946Z,102455.04
2018-09-27T07:04:50.550Z,102456.43
2018-09-27T07:07:19.124Z,102455.90
2018-09-27T07:09:47.657Z,102465.52
2018-09-27T07:12:16.321Z,102467.09
2018-09-27T07:14:44.743Z,102472.97
2018-09-27T07:17:13.259Z,102467.14
2018-09-27T07:19:41.806Z,102476.80
2018-09-27T07:22:10.326Z,102469.58
2018-09-27T07:24:38.858Z,102473.68
2018-09-27T07:27:07.371Z,102470.61
2018-09-27T07:29:35.957Z,102470.61
2018-09-27T07:32:04.497Z,102470.39
2018-09-27T07:34:33.029Z,102471.50
2018-09-27T07:37:01.576Z,102476.04
2018-09-27T07:39:30.113Z,102482.80
2018-09-27T07:41:58.622Z,102482.89
2018-09-27T07:44:27.212Z,102483.65
2018-09-27T07:46:55.695Z,102484.54
2018-09-27T07:49:24.221Z,102484.01
2018-09-27T07:51:52.741Z,102484.89
2018-09-27T07:54:21.360Z,102486.19
2018-09-27T07:56:49.826Z,102486.19
2018-09-27T07:59:18.360Z,102488.01
2018-09-27T08:01:46.877Z,102484.13
2018-09-27T08:04:15.480Z,102481.80
2018-09-27T08:06:43.942Z,102482.78
2018-09-27T08:09:12.473Z,102488.23
2018-09-27T08:11:41.058Z,102494.32
2018-09-27T08:14:09.813Z,102478.66
2018-09-27T08:16:38.357Z,102485.02
2018-09-27T08:19:06.894Z,102485.91
2018-09-27T08:21:35.411Z,102490.80
2018-09-27T08:24:03.997Z,102479.14
2018-09-27T08:26:32.572Z,102490.51
2018-09-27T08:29:01.068Z,102489.01
2018-09-27T08:31:29.592Z,102499.11
2018-09-27T08:33:58.129Z,102491.93
2018-09-27T08:36:26.681Z,102491.50
2018-09-27T08:38:55.189Z,102491.95
2018-09-27T08:41:23.781Z,102496.91
2018-09-27T08:43:52.314Z,102501.67
2018-09-27T08:46:20.870Z,102499.52
2018-09-27T08:48:49.399Z,102502.42
2018-09-27T08:51:18.041Z,102500.52
2018-09-27T08:53:46.562Z,102500.33
2018-09-27T08:56:15.221Z,102488.36
2018-09-27T08:58:43.735Z,102485.56
2018-09-27T09:01:12.281Z,102476.48
2018-09-27T09:03:40.884Z,102474.64
2018-09-27T09:06:09.368Z,102477.34
2018-09-27T09:08:38.030Z,102471.17
2018-09-27T09:11:06.884Z,102469.39
2018-09-27T09:13:35.475Z,102463.15
2018-09-27T09:16:04.544Z,102463.64
2018-09-27T09:18:33.071Z,102454.59
2018-09-27T09:21:01.717Z,102452.11
2018-09-27T09:23:30.231Z,102445.17
2018-09-27T09:25:58.779Z,102436.88
2018-09-27T09:28:27.359Z,102439.83
2018-09-27T09:30:55.873Z,102435.61
2018-09-27T09:33:24.804Z,102437.20
2018-09-27T09:35:53.393Z,102436.61
2018-09-27T09:38:21.926Z,102426.98
2018-09-27T09:40:50.518Z,102426.58
2018-09-27T09:43:19.038Z,102431.85
2018-09-27T09:45:47.629Z,102422.16
2018-09-27T09:48:16.146Z,102422.83
2018-09-27T09:50:44.673Z,102423.98
2018-09-27T09:53:13.194Z,102422.33
2018-09-27T09:55:41.749Z,102416.48
2018-09-27T09:58:10.325Z,102420.42
2018-09-27T10:00:38.977Z,102419.82
2018-09-27T10:03:08.690Z,102413.53
2018-09-27T10:05:37.290Z,102416.67
2018-09-27T10:08:06.119Z,102410.28
2018-09-27T10:10:34.666Z,102404.19
2018-09-27T10:13:03.190Z,102406.72
2018-09-27T10:15:31.772Z,102402.63
2018-09-27T10:18:00.694Z,102395.50
2018-09-27T10:20:29.354Z,102392.93
2018-09-27T10:22:57.910Z,102392.08
2018-09-27T10:25:26.467Z,102390.34
2018-09-27T10:27:54.986Z,102385.42
2018-09-27T10:30:23.522Z,102378.61
2018-09-27T10:32:52.074Z,102373.96
2018-09-27T10:35:20.586Z,102374.84
2018-09-27T10:37:49.591Z,102371.81
2018-09-27T10:40:18.103Z,102366.27
2018-09-27T10:42:46.642Z,102363.53
2018-09-27T10:45:15.160Z,102359.45
2018-09-27T10:47:43.722Z,102359.45
2018-09-27T10:50:12.209Z,102353.51
2018-09-27T10:52:40.734Z,102344.66
2018-09-27T10:55:09.233Z,102343.83
2018-09-27T10:57:37.775Z,102338.34
2018-09-27T11:00:06.433Z,102335.08
2018-09-27T11:02:34.962Z,102336.39
2018-09-27T11:05:03.477Z,102330.52
2018-09-27T11:07:32.036Z,102328.47
2018-09-27T11:10:00.526Z,102327.43
2018-09-27T11:12:29.062Z,102303.80
2018-09-27T11:14:57.558Z,102306.86
2018-09-27T11:17:26.087Z,102294.14
2018-09-27T11:19:54.598Z,102294.98
2018-09-27T11:22:23.126Z,102292.89
2018-09-27T11:24:51.606Z,102279.73
2018-09-27T11:27:20.134Z,102275.86
2018-09-27T11:29:54.058Z,102274.31
2018-09-27T11:32:27.774Z,102267.02
2018-09-27T11:34:56.267Z,102255.11
2018-09-27T11:37:24.776Z,102255.95
2018-09-27T11:39:53.286Z,102253.98
2018-09-27T11:42:22.100Z,102238.58
2018-09-27T11:44:50.587Z,102241.51
2018-09-27T11:47:19.239Z,102233.16
2018-09-27T11:49:47.835Z,102232.81
2018-09-27T11:52:16.394Z,102232.37
2018-09-27T11:54:44.902Z,102225.48
2018-09-27T11:57:13.436Z,102224.16
2018-09-27T11:59:41.933Z,102218.70
2018-09-27T12:02:10.470Z,102226.84
2018-09-27T12:04:38.975Z,102222.26
2018-09-27T12:07:07.513Z,102224.11
2018-09-27T12:09:36.042Z,102220.13
2018-09-27T12:12:04.713Z,102213.86
2018-09-27T12:14:33.200Z,102216.22
2018-09-27T12:17:01.744Z,102212.39
2018-09-27T12:19:30.714Z,102199.70
2018-09-27T12:21:59.312Z,102193.24
2018-09-27T12:24:27.824Z,102190.32
2018-09-27T12:26:56.373Z,102188.20
2018-09-27T12:29:24.872Z,102188.23
2018-09-27T12:31:53.441Z,102181.84
2018-09-27T12:34:21.994Z,102171.23
2018-09-27T12:36:50.504Z,102162.64
2018-09-27T12:39:19.027Z,102155.94
2018-09-27T12:41:47.570Z,102157.48
2018-09-27T12:44:16.109Z,102152.05
2018-09-27T12:46:44.638Z,102153.30
2018-09-27T12:49:13.184Z,102151.77
2018-09-27T12:51:41.779Z,102145.69
2018-09-27T12:54:10.369Z,102130.69
2018-09-27T12:56:38.861Z,102141.63
2018-09-27T12:59:07.733Z,102137.38
2018-09-27T13:01:36.269Z,102128.50
2018-09-27T13:04:04.856Z,102136.70
2018-09-27T13:06:33.330Z,102131.13
2018-09-27T13:09:02.014Z,102123.98
2018-09-27T13:11:30.423Z,102122.44
2018-09-27T13:13:58.948Z,102120.30
2018-09-27T13:16:27.446Z,102112.27
2018-09-27T13:18:57.942Z,102111.83
2018-09-27T13:21:24.795Z,102107.94
2018-09-27T13:23:53.339Z,102105.20
2018-09-27T13:26:21.845Z,102103.45
2018-09-27T13:28:50.381Z,102100.74
2018-09-27T13:31:25.673Z,102083.38
2018-09-27T13:33:54.296Z,102078.03
2018-09-27T13:36:22.786Z,102076.30
2018-09-27T13:38:51.304Z,102068.51
2018-09-27T13:41:19.929Z,102065.44
2018-09-27T13:43:49.310Z,102064.48
2018-09-27T13:46:18.231Z,102060.33
2018-09-27T13:48:47.028Z,102051.13
2018-09-27T13:51:16.769Z,102044.06
2018-09-27T13:53:46.956Z,102044.94
2018-09-27T13:56:15.460Z,102038.44
2018-09-27T13:58:43.973Z,102042.99
2018-09-27T14:01:12.476Z,102040.81
2018-09-27T14:03:40.988Z,102035.58
2018-09-27T14:06:09.524Z,102030.09
2018-09-27T14:08:38.039Z,102030.77
2018-09-27T14:11:06.555Z,102018.88
2018-09-27T14:13:35.098Z,102014.14
2018-09-27T14:16:03.619Z,102013.63
2018-09-27T14:18:32.140Z,102017.25
2018-09-27T14:21:00.652Z,102018.76
2018-09-27T14:23:29.198Z,102008.95
2018-09-27T14:25:57.705Z,101997.85
2018-09-27T14:28:26.229Z,101996.42
2018-09-27T14:30:54.783Z,101998.80
2018-09-27T14:33:23.316Z,101990.34
2018-09-27T14:35:51.826Z,101983.38
2018-09-27T14:38:20.377Z,101976.97
2018-09-27T14:40:48.888Z,101977.75
2018-09-27T14:43:17.375Z,101972.86
2018-09-27T14:45:45.895Z,101969.42
2018-09-27T14:48:14.385Z,101963.73
2018-09-27T14:50:42.900Z,101960.13
2018-09-27T14:53:11.389Z,101957.02
2018-09-27T14:55:39.919Z,101949.33
2018-09-27T14:58:08.444Z,101955.42
2018-09-27T15:00:37.007Z,101953.66
2018-09-27T15:03:05.906Z,101944.80
2018-09-27T15:05:34.433Z,101951.02
2018-09-27T15:08:02.940Z,101946.09
2018-09-27T15:10:31.504Z,101942.56
2018-09-27T15:12:59.990Z,101944.20
2018-09-27T15:15:28.518Z,101942.11
2018-09-27T15:17:57.089Z,101937.33
2018-09-27T15:20:25.555Z,101931.10
2018-09-27T15:22:54.095Z,101928.06
2018-09-27T15:25:22.627Z,101927.92
2018-09-27T15:27:51.118Z,101915.13
2018-09-27T15:30:19.650Z,101921.70
2018-09-27T15:32:48.174Z,101916.86
2018-09-27T15:35:16.988Z,101918.67
2018-09-27T15:37:45.504Z,101919.62
2018-09-27T15:40:14.043Z,101914.27
2018-09-27T15:42:42.544Z,101915.84
2018-09-27T15:45:11.073Z,101917.28
2018-09-27T15:47:39.566Z,101915.78
2018-09-27T15:50:08.117Z,101914.38
2018-09-27T15:52:36.632Z,101908.70
2018-09-27T15:55:05.177Z,101905.14
2018-09-27T15:57:33.697Z,101905.25
2018-09-27T16:00:02.224Z,101909.56
2018-09-27T16:02:30.724Z,101906.44
2018-09-27T16:04:59.250Z,101901.55
2018-09-27T16:07:27.737Z,101900.58
2018-09-27T16:09:56.273Z,101902.39
2018-09-27T16:12:24.838Z,101901.16
2018-09-27T16:14:53.505Z,101897.97
2018-09-27T16:17:22.115Z,101901.50
2018-09-27T16:19:50.763Z,101891.31
2018-09-27T16:22:19.295Z,101887.06
2018-09-27T16:24:47.859Z,101881.10
2018-09-27T16:27:16.353Z,101881.02
2018-09-27T16:29:44.985Z,101876.84
2018-09-27T16:32:13.575Z,101873.98
2018-09-27T16:34:42.970Z,101876.41
2018-09-27T16:37:11.482Z,101869.89
2018-09-27T16:39:39.960Z,101870.09
2018-09-27T16:42:08.632Z,101875.27
2018-09-27T16:44:37.275Z,101873.04
2018-09-27T16:47:05.838Z,101867.69
2018-09-27T16:49:34.358Z,101868.40
2018-09-27T16:52:02.887Z,101865.82
2018-09-27T16:54:31.430Z,101863.50
2018-09-27T16:57:00.016Z,101860.40
2018-09-27T16:59:28.682Z,101860.59
2018-09-27T17:01:57.297Z,101861.89
2018-09-27T17:04:25.759Z,101853.69
2018-09-27T17:06:54.277Z,101855.81
2018-09-27T17:09:22.778Z,101846.87
2018-09-27T17:11:51.313Z,101853.23
2018-09-27T17:14:19.826Z,101846.23
2018-09-27T17:16:48.364Z,101847.63
2018-09-27T17:19:16.869Z,101847.04
2018-09-27T17:21:45.394Z,101839.78
2018-09-27T17:24:13.970Z,101839.42
2018-09-27T17:26:42.512Z,101836.00
2018-09-27T17:29:11.040Z,101822.55
2018-09-27T17:31:39.590Z,101828.64
2018-09-27T17:34:08.353Z,101819.41
2018-09-27T17:36:36.878Z,101816.61
2018-09-27T17:39:06.721Z,101828.95
2018-09-27T17:41:35.270Z,101823.56
2018-09-27T17:44:03.833Z,101824.48
2018-09-27T17:46:32.453Z,101824.59
2018-09-27T17:49:00.937Z,101821.24
2018-09-27T17:51:29.475Z,101826.72
2018-09-27T17:53:57.978Z,101828.03
2018-09-27T17:56:26.522Z,101825.38
2018-09-27T17:58:55.031Z,101824.97
2018-09-27T18:01:23.572Z,101825.63
2018-09-27T18:03:52.081Z,101820.12
2018-09-27T18:06:20.610Z,101819.92
2018-09-27T18:08:49.142Z,101825.82
2018-09-27T18:11:17.666Z,101816.95
2018-09-27T18:13:46.216Z,101821.66
2018-09-27T18:16:14.745Z,101821.93
2018-09-27T18:18:43.274Z,101820.23
2018-09-27T18:21:11.903Z,101825.27
2018-09-27T18:23:40.619Z,101823.83
2018-09-27T18:26:09.357Z,101820.69
2018-09-27T18:28:37.952Z,101821.55
2018-09-27T18:31:06.576Z,101822.02
2018-09-27T18:33:35.121Z,101827.55
2018-09-27T18:36:03.648Z,101815.39
2018-09-27T18:38:32.148Z,101816.86
2018-09-27T18:41:00.712Z,101813.63
2018-09-27T18:43:29.238Z,101814.77
2018-09-27T18:45:57.742Z,101810.08
2018-09-27T18:48:26.279Z,101804.17
2018-09-27T18:50:54.789Z,101804.82
2018-09-27T18:53:23.317Z,101806.73
2018-09-27T18:55:51.822Z,101809.44
2018-09-27T18:58:20.361Z,101800.98
2018-09-27T19:00:48.870Z,101800.88
2018-09-27T19:03:17.409Z,101799.71
2018-09-27T19:05:45.922Z,101801.99
2018-09-27T19:08:14.444Z,101801.06
2018-09-27T19:10:42.947Z,101803.13
2018-09-27T19:13:11.475Z,101799.14
2018-09-27T19:15:39.983Z,101796.20
2018-09-27T19:18:08.615Z,101798.80
2018-09-27T19:20:37.186Z,101791.95
2018-09-27T19:23:05.726Z,101787.02
2018-09-27T19:25:34.308Z,101784.41
2018-09-27T19:28:02.857Z,101789.00
2018-09-27T19:30:31.363Z,101778.64
2018-09-27T19:32:59.929Z,101778.69
2018-09-27T19:35:28.480Z,101779.71
2018-09-27T19:37:57.222Z,101771.62
2018-09-27T19:40:25.830Z,101770.38
2018-09-27T19:42:54.417Z,101764.53
2018-09-27T19:45:22.944Z,101765.55
2018-09-27T19:47:51.546Z,101758.28
2018-09-27T19:50:20.053Z,101757.07
2018-09-27T19:52:48.613Z,101761.36
2018-09-27T19:55:17.254Z,101759.17
2018-09-27T19:57:45.991Z,101759.43
2018-09-27T20:00:14.542Z,101760.62
2018-09-27T20:02:43.223Z,101755.02
2018-09-27T20:05:11.668Z,101754.47
2018-09-27T20:07:40.191Z,101755.44
2018-09-27T20:10:08.728Z,101750.61
2018-09-27T20:12:37.270Z,101743.52
2018-09-27T20:15:05.843Z,101745.77
2018-09-27T20:17:34.373Z,101742.00
2018-09-27T20:20:02.891Z,101742.54
2018-09-27T20:22:31.426Z,101737.88
2018-09-27T20:25:00.046Z,101736.62
2018-09-27T20:27:28.566Z,101734.20
2018-09-27T20:29:57.066Z,101738.65
2018-09-27T20:32:25.616Z,101734.13
2018-09-27T20:34:54.168Z,101736.56
2018-09-27T20:37:22.691Z,101727.86
2018-09-27T20:39:51.203Z,101727.61
2018-09-27T20:42:19.724Z,101724.54
2018-09-27T20:44:48.215Z,101724.64
2018-09-27T20:47:16.734Z,101727.89
2018-09-27T20:49:45.284Z,101722.52
2018-09-27T20:52:13.803Z,101722.09
2018-09-27T20:54:42.403Z,101720.00
2018-09-27T20:57:10.906Z,101718.52
2018-09-27T20:59:39.430Z,101712.49
2018-09-27T21:02:08.014Z,101710.26
2018-09-27T21:04:36.539Z,101704.20
2018-09-27T21:07:05.046Z,101703.34
2018-09-27T21:09:33.586Z,101704.71
2018-09-27T21:12:02.085Z,101700.52
2018-09-27T21:14:30.629Z,101699.34
2018-09-27T21:16:59.129Z,101696.50
2018-09-27T21:19:27.717Z,101694.40
2018-09-27T21:21:56.206Z,101695.77
2018-09-27T21:24:24.721Z,101689.52
2018-09-27T21:26:54.666Z,101688.90
2018-09-27T21:29:24.146Z,101690.47
2018-09-27T21:31:52.745Z,101687.94
2018-09-27T21:34:21.345Z,101682.42
2018-09-27T21:36:49.830Z,101686.43
2018-09-27T21:39:18.353Z,101678.59
2018-09-27T21:41:46.846Z,101680.84
2018-09-27T21:44:15.371Z,101678.59
2018-09-27T21:46:43.861Z,101670.78
2018-09-27T21:49:12.390Z,101670.59
2018-09-27T21:51:40.905Z,101668.78
2018-09-27T21:54:09.420Z,101670.05
2018-09-27T21:56:37.948Z,101668.97
2018-09-27T21:59:06.492Z,101663.06
2018-09-27T22:01:34.980Z,101660.01
2018-09-27T22:04:03.505Z,101661.27
2018-09-27T22:06:32.010Z,101658.93
2018-09-27T22:09:00.529Z,101653.96
2018-09-27T22:11:29.029Z,101645.53
2018-09-27T22:13:57.553Z,101646.78
2018-09-27T22:16:26.049Z,101634.83
2018-09-27T22:18:54.558Z,101637.45
2018-09-27T22:21:23.061Z,101642.55
2018-09-27T22:23:51.584Z,101636.19
2018-09-27T22:26:20.093Z,101631.45
2018-09-27T22:28:48.610Z,101635.98
2018-09-27T22:31:17.126Z,101639.36
2018-09-27T22:33:45.672Z,101630.90
2018-09-27T22:36:14.181Z,101626.78
2018-09-27T22:38:42.702Z,101624.34
2018-09-27T22:41:11.209Z,101623.30
2018-09-27T22:43:39.727Z,101624.68
2018-09-27T22:46:08.227Z,101628.68
2018-09-27T22:48:36.722Z,101631.66
2018-09-27T22:51:05.255Z,101625.81
2018-09-27T22:53:33.790Z,101619.70
2018-09-27T22:56:02.318Z,101620.30
2018-09-27T22:58:30.814Z,101622.42
2018-09-27T23:00:59.329Z,101625.58
2018-09-27T23:03:27.835Z,101628.98
2018-09-27T23:05:56.357Z,101631.12
2018-09-27T23:08:24.902Z,101630.30
2018-09-27T23:10:53.429Z,101623.63
2018-09-27T23:13:21.949Z,101628.29
2018-09-27T23:15:50.499Z,101631.77
2018-09-27T23:18:19.002Z,101625.55
2018-09-27T23:20:47.537Z,101627.23
2018-09-27T23:23:16.034Z,101624.91
2018-09-27T23:25:44.584Z,101623.34
2018-09-27T23:28:13.182Z,101623.45
2018-09-27T23:30:41.701Z,101617.42
2018-09-27T23:33:10.225Z,101620.82
2018-09-27T23:35:38.745Z,101624.30
2018-09-27T23:38:07.257Z,101627.97
2018-09-27T23:40:35.776Z,101623.34
2018-09-27T23:43:04.322Z,101621.62
2018-09-27T23:45:32.849Z,101618.98
2018-09-27T23:48:01.349Z,101614.64
2018-09-27T23:50:29.882Z,101623.34
2018-09-27T23:52:58.402Z,101632.00
2018-09-27T23:55:26.927Z,101633.05
2018-09-27T23:57:55.497Z,101629.07
